Time;durP1;ratioP1;P1;durP2;ratioP2;P2;SDS_P1;SDS_P2;PMS_P1;PMS_P2;Temp;Humidity;BMP_temperature;BMP_pressure;BME280_temperature;BME280_humidity;BME280_pressure;Samples;Min_cycle;Max_cycle;Signal;HPM_P1;HPM_P2
2021/09/28 00:01:42;;;;;;;7.23;4.73;;;14.40;1.00;15.30;101159.00;;;;5071972;28;20499;-82
2021/09/28 00:04:12;;;;;;;5.67;4.50;;;14.40;1.00;15.40;101153.00;;;;5051287;28;20536;-81
2021/09/28 00:06:40;;;;;;;8.00;5.10;;;14.40;1.00;15.40;101183.00;;;;5041371;28;20481;-83
2021/09/28 00:09:09;;;;;;;9.10;4.57;;;14.50;1.00;15.40;101180.00;;;;5035674;28;20453;-83
2021/09/28 00:11:38;;;;;;;10.67;4.77;;;14.50;1.00;15.40;101159.00;;;;5032462;28;20485;-83
2021/09/28 00:14:06;;;;;;;7.10;4.53;;;14.40;1.00;15.40;101192.00;;;;5035409;28;20527;-82
2021/09/28 00:16:35;;;;;;;8.53;4.63;;;14.40;1.00;15.30;101179.00;;;;5032356;28;20468;-83
2021/09/28 00:19:03;;;;;;;9.63;5.50;;;14.40;1.00;15.40;101118.00;;;;5035916;28;20457;-83
2021/09/28 00:21:33;;;;;;;7.17;5.00;;;14.50;1.00;15.50;101179.00;;;;5049544;28;20470;-84
2021/09/28 00:24:02;;;;;;;8.83;4.77;;;14.50;1.00;15.50;101181.00;;;;5035795;28;20479;-85
2021/09/28 00:26:30;;;;;;;6.93;5.30;;;14.50;1.00;15.50;101196.00;;;;5038315;28;20841;-84
2021/09/28 00:28:59;;;;;;;5.70;4.43;;;14.50;1.00;15.40;101144.00;;;;5030141;28;20820;-84
2021/09/28 00:31:27;;;;;;;6.20;4.20;;;14.50;1.00;15.40;101155.00;;;;5027203;28;21080;-84
2021/09/28 00:33:56;;;;;;;7.57;5.00;;;14.40;1.00;15.40;101190.00;;;;5052094;28;20444;-84
2021/09/28 00:36:24;;;;;;;6.97;5.00;;;14.40;1.00;15.30;101172.00;;;;5059781;28;20457;-86
2021/09/28 00:38:54;;;;;;;8.17;4.80;;;14.40;1.00;15.30;101194.00;;;;5056920;28;20460;-84
2021/09/28 00:41:23;;;;;;;9.47;5.30;;;14.40;1.00;15.30;101158.00;;;;5046540;28;20492;-83
2021/09/28 00:43:54;;;;;;;9.40;5.03;;;14.40;1.00;15.30;101164.00;;;;5038588;28;20527;-83
2021/09/28 00:46:24;;;;;;;8.63;4.90;;;14.40;1.00;15.30;101174.00;;;;5034373;28;20989;-83
2021/09/28 00:48:53;;;;;;;8.23;5.83;;;14.40;1.00;15.30;101204.00;;;;5034587;28;20445;-84
2021/09/28 00:51:22;;;;;;;5.80;4.97;;;14.40;1.00;15.30;101195.00;;;;5028220;28;20474;-84
2021/09/28 00:53:55;;;;;;;8.20;4.93;;;14.50;1.00;15.30;101211.00;;;;5047187;28;20471;-83
2021/09/28 00:56:24;;;;;;;9.77;5.80;;;14.40;1.00;15.30;101206.00;;;;5048118;28;20504;-82
2021/09/28 00:58:53;;;;;;;9.50;5.70;;;14.40;1.00;15.20;101206.00;;;;5059525;28;20479;-83
2021/09/28 01:01:22;;;;;;;12.53;6.27;;;14.40;1.00;15.20;101175.00;;;;5041190;28;20888;-83
2021/09/28 01:03:50;;;;;;;14.73;6.33;;;14.30;1.00;15.20;101180.00;;;;5051259;28;20484;-83
2021/09/28 01:06:19;;;;;;;8.03;6.03;;;14.30;1.00;15.10;101200.00;;;;5064723;28;20547;-84
2021/09/28 01:08:47;;;;;;;8.23;5.90;;;14.20;1.00;15.00;101170.00;;;;5060239;28;20448;-85
2021/09/28 01:11:19;;;;;;;8.10;5.90;;;14.20;1.00;14.90;101200.00;;;;5052084;28;20476;-84
2021/09/28 01:13:48;;;;;;;12.67;6.80;;;14.00;1.00;14.90;101203.00;;;;5053866;28;20477;-84
2021/09/28 01:16:17;;;;;;;9.90;6.97;;;14.00;1.00;14.80;101198.00;;;;5039298;28;20449;-84
2021/09/28 01:18:46;;;;;;;11.60;5.67;;;14.00;1.00;14.70;101194.00;;;;5060357;28;20457;-85
2021/09/28 01:21:17;;;;;;;8.53;4.80;;;13.90;1.00;14.70;101162.00;;;;5042607;28;20498;-84
2021/09/28 01:23:46;;;;;;;9.67;5.83;;;13.80;1.00;14.60;101189.00;;;;5061026;28;20447;-83
2021/09/28 01:26:16;;;;;;;12.77;6.20;;;13.80;1.00;14.50;101196.00;;;;5066958;28;20482;-85
2021/09/28 01:29:03;;;;;;;13.00;6.70;;;13.70;1.00;14.50;101193.00;;;;5054628;28;20467;-84
2021/09/28 01:31:40;;;;;;;12.20;7.40;;;13.70;1.00;14.40;101188.00;;;;5068729;28;20467;-82
2021/09/28 01:34:09;;;;;;;11.80;7.57;;;13.60;1.00;14.40;101192.00;;;;5060728;28;20456;-83
2021/09/28 01:36:40;;;;;;;11.30;7.17;;;13.60;1.00;14.40;101192.00;;;;5022698;28;20984;-82
2021/09/28 01:39:09;;;;;;;11.37;7.30;;;13.50;1.00;14.30;101197.00;;;;5039429;28;20463;-85
2021/09/28 01:41:37;;;;;;;10.03;7.20;;;13.50;1.00;14.30;101061.00;;;;5057610;28;20596;-83
2021/09/28 01:44:08;;;;;;;9.77;6.57;;;13.40;1.00;14.20;101197.00;;;;5053689;28;20446;-86
2021/09/28 01:46:39;;;;;;;11.73;5.97;;;13.40;1.00;14.20;101193.00;;;;5073411;28;20464;-84
2021/09/28 01:49:08;;;;;;;11.50;6.50;;;13.50;1.00;14.20;101132.00;;;;5049563;28;20455;-83
2021/09/28 01:51:40;;;;;;;11.33;6.00;;;13.40;1.00;14.10;101197.00;;;;5048955;28;20485;-83
2021/09/28 01:54:10;;;;;;;10.97;6.17;;;13.40;1.00;14.10;101080.00;;;;5050012;28;20458;-82
2021/09/28 01:56:40;;;;;;;9.40;5.60;;;13.40;1.00;14.10;101205.00;;;;5045671;28;20446;-82
2021/09/28 01:59:09;;;;;;;10.43;5.17;;;13.30;1.00;14.10;101207.00;;;;5049223;28;20471;-82
2021/09/28 02:01:37;;;;;;;10.67;5.20;;;13.30;1.00;14.10;101198.00;;;;5032147;28;20473;-82
2021/09/28 02:04:06;;;;;;;7.53;4.80;;;13.30;1.00;14.10;101181.00;;;;5039400;28;20456;-83
2021/09/28 02:06:39;;;;;;;16.10;5.10;;;13.30;1.00;14.10;101192.00;;;;5029084;28;20518;-84
2021/09/28 02:09:10;;;;;;;7.50;4.77;;;13.30;1.00;14.10;101145.00;;;;5029600;28;20970;-84
2021/09/28 02:11:39;;;;;;;9.00;5.20;;;13.30;1.00;14.10;101204.00;;;;5048761;28;20473;-84
2021/09/28 02:14:09;;;;;;;7.23;4.70;;;13.30;1.00;14.00;101218.00;;;;5043690;28;20519;-86
2021/09/28 02:16:38;;;;;;;9.50;5.00;;;13.30;1.00;14.00;101227.00;;;;5054168;28;20528;-84
2021/09/28 02:19:07;;;;;;;5.57;4.47;;;13.20;1.00;14.00;101196.00;;;;5043594;28;20970;-82
2021/09/28 02:21:39;;;;;;;10.00;5.20;;;13.30;1.00;14.00;101224.00;;;;5028892;28;20487;-83
2021/09/28 02:24:23;;;;;;;6.57;5.27;;;13.20;1.00;13.70;101233.00;;;;5028613;28;20459;-84
2021/09/28 02:26:51;;;;;;;13.73;5.10;;;13.20;1.00;14.00;101225.00;;;;5024348;28;20508;-83
2021/09/28 02:29:20;;;;;;;10.10;4.47;;;13.20;1.00;14.00;101238.00;;;;5031715;28;20453;-84
2021/09/28 02:31:48;;;;;;;6.70;4.27;;;13.20;1.00;14.00;101165.00;;;;5038884;28;20571;-84
2021/09/28 02:34:17;;;;;;;8.47;4.10;;;13.20;1.00;13.90;101214.00;;;;5038466;28;20473;-83
2021/09/28 02:36:45;;;;;;;5.33;3.50;;;13.30;1.00;13.90;101229.00;;;;5042253;28;20443;-86
2021/09/28 02:39:14;;;;;;;8.83;3.50;;;13.10;1.00;13.80;101213.00;;;;5051535;28;21028;-83
2021/09/28 02:41:44;;;;;;;7.40;3.30;;;13.10;1.00;13.70;101232.00;;;;5040356;28;20478;-85
2021/09/28 02:44:16;;;;;;;5.47;2.80;;;13.10;1.00;13.60;101205.00;;;;5054808;28;20453;-86
2021/09/28 02:46:45;;;;;;;7.47;2.93;;;13.00;1.00;13.70;101242.00;;;;5061182;28;20468;-86
2021/09/28 02:49:15;;;;;;;11.13;3.53;;;13.00;1.00;13.70;101238.00;;;;5049157;28;20460;-82
2021/09/28 02:51:43;;;;;;;6.57;2.90;;;13.00;1.00;13.60;101236.00;;;;5041263;28;20481;-83
2021/09/28 02:54:11;;;;;;;9.37;3.53;;;12.90;1.00;13.40;101134.00;;;;5034159;28;20455;-82
2021/09/28 02:56:40;;;;;;;7.10;3.27;;;12.90;1.00;13.60;101240.00;;;;5054364;28;20449;-81
2021/09/28 02:59:10;;;;;;;12.00;3.73;;;12.90;1.00;13.60;101200.00;;;;5053440;28;20445;-82
2021/09/28 03:01:39;;;;;;;6.57;2.87;;;12.80;1.00;13.50;101240.00;;;;5042733;28;20487;-82
2021/09/28 03:04:08;;;;;;;8.57;3.23;;;12.90;1.00;13.50;101246.00;;;;5028534;28;20448;-82
2021/09/28 03:06:36;;;;;;;7.30;3.30;;;12.80;1.00;13.50;101243.00;;;;5033270;28;20456;-83
2021/09/28 03:09:05;;;;;;;10.93;3.97;;;12.80;1.00;13.50;101238.00;;;;5019498;28;20457;-83
2021/09/28 03:11:34;;;;;;;7.00;3.20;;;12.80;1.00;13.50;101162.00;;;;5036747;28;20480;-81
2021/09/28 03:14:02;;;;;;;6.90;3.10;;;12.80;1.00;13.50;101245.00;;;;5033677;28;20500;-81
2021/09/28 03:16:32;;;;;;;8.13;3.40;;;12.80;1.00;52.70;162499.00;;;;5027776;28;20459;-83
2021/09/28 03:19:01;;;;;;;9.40;2.90;;;12.80;1.00;13.40;101156.00;;;;5054299;28;20905;-83
2021/09/28 03:21:30;;;;;;;8.90;2.73;;;12.80;1.00;13.50;101253.00;;;;5042551;28;20500;-83
2021/09/28 03:23:58;;;;;;;5.50;2.60;;;12.70;1.00;13.50;101222.00;;;;5024046;28;20475;-82
2021/09/28 03:26:28;;;;;;;7.53;3.00;;;12.70;1.00;13.50;101249.00;;;;5036851;28;20460;-82
2021/09/28 03:28:56;;;;;;;6.97;2.83;;;12.80;1.00;13.50;101261.00;;;;5035986;28;20471;-86
2021/09/28 03:31:24;;;;;;;8.63;2.90;;;12.70;1.00;13.40;101254.00;;;;5072362;28;20484;-84
2021/09/28 03:33:54;;;;;;;6.13;2.20;;;12.80;1.00;13.40;101255.00;;;;5058506;28;20445;-83
2021/09/28 03:36:23;;;;;;;9.43;2.77;;;12.80;1.00;13.40;101267.00;;;;5058111;28;20464;-81
2021/09/28 03:38:51;;;;;;;4.37;2.70;;;12.80;1.00;13.40;101262.00;;;;5040310;28;20459;-82
2021/09/28 03:41:20;;;;;;;10.33;2.80;;;12.80;1.00;13.40;101279.00;;;;5042373;28;20491;-84
2021/09/28 03:43:49;;;;;;;6.40;2.23;;;12.80;1.00;13.40;101275.00;;;;5024940;28;20457;-82
2021/09/28 03:46:17;;;;;;;7.40;2.50;;;12.80;1.00;13.40;101273.00;;;;5049218;28;20457;-82
2021/09/28 03:48:46;;;;;;;8.00;2.90;;;12.90;1.00;13.40;101252.00;;;;5048930;28;20479;-83
2021/09/28 03:51:16;;;;;;;8.23;3.03;;;12.80;1.00;13.40;101266.00;;;;5047861;28;20449;-80
2021/09/28 03:53:44;;;;;;;6.67;3.30;;;12.80;1.00;13.40;101268.00;;;;5054823;28;20514;-82
2021/09/28 03:56:13;;;;;;;8.40;3.00;;;12.80;1.00;13.40;101217.00;;;;5075698;28;20440;-81
2021/09/28 03:58:41;;;;;;;9.50;3.50;;;12.80;1.00;13.40;101270.00;;;;5056732;28;20520;-82
2021/09/28 04:01:09;;;;;;;9.60;2.93;;;12.80;1.00;13.30;101263.00;;;;5058676;28;20444;-82
2021/09/28 04:03:41;;;;;;;7.70;3.13;;;12.80;1.00;13.30;101262.00;;;;5056026;28;20451;-82
2021/09/28 04:06:10;;;;;;;9.60;3.23;;;12.80;1.00;13.20;101286.00;;;;5051906;28;20452;-82
2021/09/28 04:08:40;;;;;;;7.43;3.10;;;12.80;1.00;13.30;101283.00;;;;5036162;28;20472;-82
2021/09/28 04:11:09;;;;;;;6.47;2.70;;;12.70;1.00;13.20;101264.00;;;;5040365;28;20452;-82
2021/09/28 04:13:37;;;;;;;8.43;3.20;;;12.70;1.00;13.20;101280.00;;;;5057405;28;20460;-81
2021/09/28 04:16:07;;;;;;;10.50;4.33;;;12.70;1.00;13.20;101283.00;;;;5043002;28;20460;-83
2021/09/28 04:18:36;;;;;;;4.93;3.03;;;12.60;1.00;13.10;101279.00;;;;5059089;28;20462;-83
2021/09/28 04:21:05;;;;;;;10.27;3.83;;;12.60;1.00;13.10;101285.00;;;;5044629;28;20457;-83
2021/09/28 04:23:34;;;;;;;10.53;4.30;;;12.50;1.00;13.10;101226.00;;;;5047558;28;20470;-84
2021/09/28 04:26:04;;;;;;;9.17;3.73;;;12.50;1.00;13.10;101283.00;;;;5054151;28;20448;-81
2021/09/28 04:28:32;;;;;;;8.80;3.67;;;12.40;1.00;13.10;101277.00;;;;5036219;28;20465;-83
2021/09/28 04:31:01;;;;;;;6.97;3.80;;;12.40;1.00;13.00;101279.00;;;;5062150;28;20600;-83
2021/09/28 04:33:30;;;;;;;9.40;3.70;;;12.40;1.00;12.90;101274.00;;;;5046143;28;20459;-83
2021/09/28 04:35:58;;;;;;;7.63;4.20;;;12.40;1.00;13.00;101280.00;;;;5064427;28;20448;-83
2021/09/28 04:38:26;;;;;;;7.03;3.57;;;12.30;1.00;13.00;101257.00;;;;5061429;28;20518;-82
2021/09/28 04:40:55;;;;;;;6.13;4.10;;;12.30;1.00;12.90;101291.00;;;;5061202;28;20448;-84
2021/09/28 04:43:25;;;;;;;10.00;4.07;;;12.30;1.00;12.90;101160.00;;;;5039939;28;20558;-83
2021/09/28 04:45:53;;;;;;;8.43;3.70;;;12.30;1.00;12.90;101283.00;;;;5039448;28;20459;-85
2021/09/28 04:48:23;;;;;;;8.87;4.40;;;12.30;1.00;12.90;101277.00;;;;5070033;28;20452;-83
2021/09/28 04:50:52;;;;;;;7.90;3.63;;;12.30;1.00;12.90;101294.00;;;;5051699;28;20444;-84
2021/09/28 04:53:24;;;;;;;9.87;4.33;;;12.50;1.00;12.90;101306.00;;;;5055431;28;20460;-84
2021/09/28 04:55:55;;;;;;;12.90;4.10;;;12.30;1.00;12.90;101243.00;;;;5068748;28;20813;-82
2021/09/28 04:58:27;;;;;;;9.03;4.20;;;12.30;1.00;12.80;101302.00;;;;5050425;28;20455;-82
2021/09/28 05:00:55;;;;;;;13.47;5.83;;;12.30;1.00;12.80;101279.00;;;;5040153;28;20624;-83
2021/09/28 05:03:24;;;;;;;9.33;5.50;;;12.30;1.00;12.80;101273.00;;;;5057702;28;20455;-83
2021/09/28 05:05:52;;;;;;;7.00;4.60;;;12.30;1.00;12.80;101279.00;;;;5054990;28;20425;-82
2021/09/28 05:08:21;;;;;;;10.93;5.60;;;12.20;1.00;12.80;101309.00;;;;5068889;28;20480;-82
2021/09/28 05:10:53;;;;;;;11.87;4.77;;;12.20;1.00;12.80;101311.00;;;;5065966;28;20448;-83
2021/09/28 05:13:21;;;;;;;12.73;4.73;;;12.20;1.00;12.80;101326.00;;;;5042209;28;20470;-84
2021/09/28 05:15:51;;;;;;;11.30;5.27;;;12.20;1.00;12.80;101221.00;;;;5042287;28;20505;-84
2021/09/28 05:18:20;;;;;;;9.80;5.50;;;12.20;1.00;12.80;101326.00;;;;5050194;28;21405;-82
2021/09/28 05:20:49;;;;;;;10.00;5.37;;;12.10;1.00;12.70;101284.00;;;;5040299;28;20494;-82
2021/09/28 05:23:17;;;;;;;10.13;5.80;;;12.20;1.00;12.70;101321.00;;;;5052020;28;20568;-82
2021/09/28 05:25:46;;;;;;;14.20;6.30;;;12.10;1.00;12.50;101299.00;;;;5038265;28;20448;-83
2021/09/28 05:28:14;;;;;;;9.80;5.03;;;12.20;1.00;12.70;101293.00;;;;5036271;28;21006;-84
2021/09/28 05:30:44;;;;;;;9.33;5.70;;;12.20;1.00;12.80;101297.00;;;;5040124;28;20460;-85
2021/09/28 05:33:14;;;;;;;14.97;5.40;;;12.20;1.00;12.80;101269.00;;;;5062045;28;20464;-81
2021/09/28 05:35:43;;;;;;;10.50;5.63;;;12.20;1.00;12.50;101194.00;;;;5055236;28;20530;-82
2021/09/28 05:38:11;;;;;;;10.73;6.17;;;12.20;1.00;12.80;101330.00;;;;5058131;28;20444;-81
2021/09/28 05:40:40;;;;;;;7.13;5.70;;;12.20;1.00;12.80;101320.00;;;;5058536;28;20484;-84
2021/09/28 05:43:08;;;;;;;7.40;5.03;;;12.30;1.00;12.80;101331.00;;;;5077230;28;20455;-83
2021/09/28 05:45:37;;;;;;;12.53;6.10;;;12.30;1.00;12.90;101289.00;;;;5060139;28;20458;-81
2021/09/28 05:48:05;;;;;;;15.90;6.07;;;12.30;1.00;12.70;101304.00;;;;5049334;28;20478;-82
2021/09/28 05:50:41;;;;;;;15.97;7.53;;;12.40;1.00;13.00;101297.00;;;;5041735;28;20456;-82
2021/09/28 05:53:10;;;;;;;10.53;5.53;;;12.50;1.00;13.10;101306.00;;;;5037862;28;20479;-82
2021/09/28 05:55:39;;;;;;;8.00;5.10;;;12.40;1.00;13.20;101341.00;;;;5039711;28;20517;-81
2021/09/28 05:58:08;;;;;;;8.57;5.00;;;12.60;1.00;13.20;101329.00;;;;5038255;28;20552;-83
2021/09/28 06:00:36;;;;;;;10.07;4.53;;;12.70;1.00;13.30;101262.00;;;;5030573;28;20506;-81
2021/09/28 06:03:05;;;;;;;10.00;4.87;;;12.70;1.00;13.30;101220.00;;;;5039692;28;20471;-81
2021/09/28 06:05:35;;;;;;;9.07;5.33;;;12.70;1.00;13.40;101299.00;;;;5033227;28;20475;-82
2021/09/28 06:08:06;;;;;;;9.17;5.13;;;12.80;1.00;13.40;101346.00;;;;5038997;28;20440;-85
2021/09/28 06:10:34;;;;;;;7.73;5.30;;;12.80;1.00;13.40;101328.00;;;;5038879;28;20456;-82
2021/09/28 06:13:03;;;;;;;11.73;5.80;;;12.80;1.00;13.50;101334.00;;;;5055445;28;20987;-82
2021/09/28 06:15:32;;;;;;;12.33;6.10;;;12.90;1.00;13.50;101356.00;;;;5055040;28;21135;-82
2021/09/28 06:18:00;;;;;;;11.13;5.10;;;12.90;1.00;13.60;101198.00;;;;5041989;28;20471;-85
2021/09/28 06:20:29;;;;;;;8.83;6.10;;;13.00;1.00;13.70;101349.00;;;;5024642;28;20455;-82
2021/09/28 06:22:57;;;;;;;11.97;6.37;;;13.10;1.00;13.70;101339.00;;;;5024883;28;20465;-82
2021/09/28 06:25:28;;;;;;;9.60;6.17;;;13.10;1.00;13.70;101343.00;;;;5067288;28;20475;-83
2021/09/28 06:27:56;;;;;;;8.00;5.17;;;13.20;1.00;13.80;101289.00;;;;5062183;28;20459;-83
2021/09/28 06:30:25;;;;;;;11.10;6.07;;;13.20;1.00;13.90;101347.00;;;;5060081;28;20482;-83
2021/09/28 06:32:53;;;;;;;10.20;5.67;;;13.30;1.00;14.00;101321.00;;;;5075994;28;20566;-83
2021/09/28 06:35:23;;;;;;;9.10;5.50;;;13.30;1.00;14.10;101343.00;;;;5077645;28;20435;-84
2021/09/28 06:37:51;;;;;;;13.53;5.70;;;13.40;1.00;14.10;101350.00;;;;5074567;28;20449;-83
2021/09/28 06:40:20;;;;;;;8.30;5.23;;;13.50;1.00;14.20;101362.00;;;;5059594;28;20516;-84
2021/09/28 06:42:49;;;;;;;8.53;5.63;;;13.60;1.00;14.20;101340.00;;;;5065863;28;20532;-83
2021/09/28 06:45:18;;;;;;;9.30;5.50;;;13.50;1.00;14.30;101323.00;;;;5069510;28;20456;-84
2021/09/28 06:47:47;;;;;;;9.23;5.70;;;13.60;1.00;14.40;101352.00;;;;5076599;28;20454;-84
2021/09/28 06:50:16;;;;;;;14.30;5.50;;;13.70;1.00;14.40;101343.00;;;;5059837;28;20486;-83
2021/09/28 06:52:45;;;;;;;13.33;5.73;;;13.80;1.00;14.60;101350.00;;;;5066555;28;20490;-83
2021/09/28 06:55:14;;;;;;;14.37;6.00;;;13.90;1.00;14.60;101347.00;;;;5073811;28;20932;-82
2021/09/28 06:57:43;;;;;;;8.83;6.17;;;13.90;1.00;14.60;101330.00;;;;5072720;28;20467;-83
2021/09/28 07:00:14;;;;;;;18.67;7.67;;;14.00;1.00;14.70;101342.00;;;;5080351;28;20435;-83
2021/09/28 07:02:42;;;;;;;22.80;7.30;;;14.00;1.00;14.80;101349.00;;;;5076007;28;20487;-84
2021/09/28 07:05:14;;;;;;;19.43;6.73;;;14.20;1.00;14.90;101350.00;;;;5062483;28;20455;-83
2021/09/28 07:07:43;;;;;;;9.50;5.93;;;14.20;1.00;14.90;101329.00;;;;5057042;28;20464;-83
2021/09/28 07:10:12;;;;;;;11.60;6.00;;;14.20;1.00;15.00;101331.00;;;;5074651;28;20510;-84
2021/09/28 07:12:41;;;;;;;14.63;6.43;;;14.30;1.00;15.10;101329.00;;;;5057748;28;20480;-83
2021/09/28 07:15:12;;;;;;;12.27;5.90;;;14.50;1.00;15.20;101369.00;;;;5057628;28;20469;-82
2021/09/28 07:17:40;;;;;;;10.77;5.63;;;14.60;1.00;15.30;101342.00;;;;5077171;28;20454;-82
2021/09/28 07:20:10;;;;;;;10.57;6.50;;;14.70;1.00;15.40;101359.00;;;;5058918;28;20537;-83
2021/09/28 07:22:39;;;;;;;10.07;4.90;;;14.80;1.00;15.40;101339.00;;;;5059153;28;20556;-83
2021/09/28 07:25:08;;;;;;;10.07;6.10;;;14.80;1.00;15.50;101349.00;;;;5060802;28;20464;-83
2021/09/28 07:27:58;;;;;;;15.40;6.30;;;14.80;1.00;15.50;101359.00;;;;5071552;28;20457;-83
2021/09/28 07:30:29;;;;;;;12.10;6.40;;;14.90;1.00;15.60;101357.00;;;;5071865;28;20471;-83
2021/09/28 07:32:59;;;;;;;9.60;5.20;;;15.00;1.00;15.70;101330.00;;;;5051925;28;20459;-83
2021/09/28 07:35:28;;;;;;;8.30;5.53;;;15.00;1.00;15.80;101349.00;;;;5058979;28;20435;-83
2021/09/28 07:37:57;;;;;;;10.47;6.37;;;15.10;1.00;15.80;101357.00;;;;5069622;28;20448;-83
2021/09/28 07:40:26;;;;;;;10.37;5.77;;;15.10;1.00;15.90;101351.00;;;;5076609;28;20519;-83
2021/09/28 07:42:57;;;;;;;12.00;6.00;;;15.20;1.00;16.00;101331.00;;;;5077313;28;20699;-82
2021/09/28 07:45:25;;;;;;;8.63;6.50;;;15.30;1.00;16.20;101361.00;;;;5061640;28;20470;-83
2021/09/28 07:47:55;;;;;;;9.70;5.93;;;15.40;1.00;16.30;101350.00;;;;5057659;28;20433;-83
2021/09/28 07:50:24;;;;;;;8.90;6.03;;;15.50;1.00;16.30;101340.00;;;;5058030;28;20608;-83
2021/09/28 07:52:52;;;;;;;9.20;6.30;;;15.40;1.00;16.30;101348.00;;;;5027631;28;20477;-82
2021/09/28 07:55:21;;;;;;;8.73;6.37;;;15.50;1.00;16.40;101305.00;;;;5041231;28;20757;-83
2021/09/28 07:57:49;;;;;;;13.50;6.23;;;15.60;1.00;16.40;101351.00;;;;5035797;28;20456;-83
2021/09/28 08:00:18;;;;;;;11.33;7.17;;;15.70;1.00;16.50;101347.00;;;;5076554;28;20462;-82
2021/09/28 08:02:47;;;;;;;10.90;6.70;;;15.80;1.00;16.50;101338.00;;;;5078061;28;20468;-82
2021/09/28 08:05:17;;;;;;;10.83;7.30;;;15.80;1.00;16.50;101341.00;;;;5052139;28;20451;-83
2021/09/28 08:07:46;;;;;;;8.10;6.70;;;15.80;1.00;16.60;101367.00;;;;5057104;28;20441;-83
2021/09/28 08:10:17;;;;;;;12.70;6.97;;;15.80;1.00;16.60;101347.00;;;;5032729;28;21001;-83
2021/09/28 08:12:47;;;;;;;9.83;6.70;;;15.90;1.00;16.70;101357.00;;;;5062540;28;20567;-83
2021/09/28 08:15:16;;;;;;;10.53;7.43;;;15.90;1.00;16.70;101365.00;;;;5046215;28;20472;-84
2021/09/28 08:17:44;;;;;;;12.03;6.40;;;15.90;1.00;16.50;101363.00;;;;5043794;28;20440;-84
2021/09/28 08:20:16;;;;;;;10.53;5.90;;;15.70;1.00;16.50;101371.00;;;;5025879;28;20445;-82
2021/09/28 08:22:46;;;;;;;11.83;6.80;;;15.70;1.00;16.50;101344.00;;;;5034020;28;20469;-83
2021/09/28 08:25:17;;;;;;;10.67;6.20;;;15.70;1.00;16.60;101374.00;;;;5059068;28;20449;-83
2021/09/28 08:30:32;;;;;;;13.50;7.90;;;15.80;1.00;16.80;101366.00;;;;5052680;28;20991;-83
2021/09/28 08:33:01;;;;;;;12.87;8.00;;;16.00;1.00;16.90;101336.00;;;;5045757;28;20549;-83
2021/09/28 08:35:30;;;;;;;11.30;7.30;;;16.10;1.00;17.10;101368.00;;;;5061972;28;20514;-83
2021/09/28 08:38:00;;;;;;;11.63;7.10;;;16.20;1.00;17.20;101300.00;;;;5042815;28;20444;-83
2021/09/28 08:40:28;;;;;;;10.40;7.10;;;16.40;1.00;17.40;101364.00;;;;5042941;28;20818;-84
2021/09/28 08:42:57;;;;;;;17.90;8.20;;;16.60;1.00;17.60;101362.00;;;;5045694;28;20829;-82
2021/09/28 08:45:25;;;;;;;9.43;6.80;;;16.80;1.00;17.70;101343.00;;;;5058729;28;20437;-83
2021/09/28 08:47:54;;;;;;;11.70;7.60;;;16.90;1.00;17.80;101375.00;;;;5058372;28;20440;-82
2021/09/28 08:50:26;;;;;;;15.40;7.03;;;17.10;1.00;18.00;101344.00;;;;5057036;28;20495;-83
2021/09/28 08:52:54;;;;;;;9.03;6.33;;;17.10;1.00;18.20;101355.00;;;;5057164;28;20566;-85
2021/09/28 08:55:24;;;;;;;10.33;5.93;;;17.40;1.00;18.30;101342.00;;;;5037403;28;20452;-82
2021/09/28 08:58:14;;;;;;;13.87;6.97;;;17.70;1.00;18.50;101343.00;;;;5020748;28;20484;-82
2021/09/28 09:00:43;;;;;;;13.80;6.57;;;17.70;1.00;18.50;101334.00;;;;5037386;28;20516;-83
2021/09/28 09:03:26;;;;;;;9.77;6.17;;;17.70;1.00;18.60;101340.00;;;;5017618;28;20461;-83
2021/09/28 09:05:58;;;;;;;17.40;6.50;;;17.70;1.00;18.60;101347.00;;;;5026304;28;20444;-83
2021/09/28 09:08:29;;;;;;;13.73;6.00;;;17.70;1.00;18.50;101343.00;;;;5032891;28;20453;-83
2021/09/28 09:11:09;;;;;;;12.60;6.27;;;17.70;1.00;18.50;101360.00;;;;5031322;28;20500;-83
2021/09/28 09:13:39;;;;;;;9.77;5.80;;;17.60;1.00;18.50;101345.00;;;;5032372;28;20449;-84
2021/09/28 09:16:13;;;;;;;12.10;6.27;;;17.60;1.00;18.50;101322.00;;;;5024899;28;20456;-83
2021/09/28 09:18:43;;;;;;;9.63;5.13;;;17.70;1.00;18.60;101346.00;;;;5020525;28;20437;-83
2021/09/28 09:21:14;;;;;;;14.93;7.10;;;17.70;1.00;18.70;101329.00;;;;5057643;28;20480;-83
2021/09/28 09:23:44;;;;;;;9.33;5.30;;;17.70;1.00;18.70;101342.00;;;;5042727;28;20962;-83
2021/09/28 09:26:18;;;;;;;7.60;3.80;;;17.90;1.00;18.90;101371.00;;;;5041082;28;20903;-82
2021/09/28 09:28:50;;;;;;;8.13;4.17;;;18.00;1.00;19.00;101339.00;;;;5039848;28;20653;-84
2021/09/28 09:31:24;;;;;;;12.20;3.83;;;18.00;1.00;19.10;101341.00;;;;5042868;28;21011;-81
2021/09/28 09:34:05;;;;;;;9.00;3.30;;;18.10;1.00;19.30;101343.00;;;;5041613;28;20521;-81
2021/09/28 09:36:33;;;;;;;7.23;3.50;;;18.20;1.00;19.40;101316.00;;;;5054280;28;20497;-81
2021/09/28 09:39:04;;;;;;;9.90;3.40;;;18.40;1.00;19.60;101339.00;;;;5056601;28;20447;-82
2021/09/28 09:41:35;;;;;;;7.40;3.00;;;18.50;1.00;19.60;101316.00;;;;5064559;28;20471;-83
2021/09/28 09:44:06;;;;;;;7.37;3.10;;;18.60;1.00;19.50;101302.00;;;;5059414;28;20428;-83
2021/09/28 09:46:43;;;;;;;9.13;2.53;;;18.40;1.00;19.50;101289.00;;;;5061627;28;20452;-82
2021/09/28 09:49:14;;;;;;;10.90;2.40;;;18.40;1.00;19.60;101295.00;;;;5039909;28;20439;-85
2021/09/28 09:51:46;;;;;;;10.97;2.87;;;18.50;1.00;19.60;101287.00;;;;5055099;28;20498;-82
2021/09/28 09:54:16;;;;;;;8.47;2.87;;;18.40;1.00;19.60;101337.00;;;;5038243;28;20440;-82
2021/09/28 09:56:49;;;;;;;7.70;2.90;;;18.40;1.00;19.60;101310.00;;;;5060263;28;20535;-83
2021/09/28 09:59:21;;;;;;;7.47;3.40;;;18.40;1.00;19.70;101284.00;;;;5056021;28;20420;-82
2021/09/28 10:01:51;;;;;;;7.87;3.90;;;18.60;1.00;19.80;101274.00;;;;5056055;28;20539;-84
2021/09/28 10:04:22;;;;;;;5.90;2.50;;;18.80;1.00;19.90;101309.00;;;;5055143;28;20448;-83
2021/09/28 10:06:52;;;;;;;11.17;3.10;;;18.80;1.00;20.00;101269.00;;;;5055818;28;20468;-85
2021/09/28 10:09:24;;;;;;;7.27;2.83;;;18.80;1.00;20.10;101314.00;;;;5066370;28;20466;-83
2021/09/28 10:11:56;;;;;;;12.13;2.60;;;18.90;1.00;20.20;101310.00;;;;5059113;28;20586;-86
2021/09/28 10:14:34;;;;;;;9.37;2.70;;;18.90;1.00;20.10;101297.00;;;;5042611;28;20440;-83
2021/09/28 10:17:40;;;;;;;7.20;2.87;;;19.00;1.00;19.90;101315.00;;;;5048310;23;20417;-77
2021/09/28 10:20:11;;;;;;;8.87;2.60;;;19.00;1.00;19.90;101306.00;;;;5029907;28;20445;-77
2021/09/28 10:22:50;;;;;;;8.17;2.70;;;18.80;1.00;19.60;101292.00;;;;5043427;28;20512;-76
2021/09/28 10:25:37;;;;;;;6.57;2.80;;;18.70;1.00;19.60;101289.00;;;;5016436;28;20445;-76
2021/09/28 10:28:31;;;;;;;11.43;3.13;;;18.80;1.00;19.70;101296.00;;;;5033119;28;20453;-75
2021/09/28 10:31:01;;;;;;;5.47;2.83;;;18.60;1.00;19.80;101281.00;;;;5049405;28;20503;-77
2021/09/28 10:33:35;;;;;;;7.80;3.10;;;18.60;1.00;19.70;101287.00;;;;5051017;28;20440;-75
2021/09/28 10:36:18;;;;;;;8.37;2.57;;;18.60;1.00;19.60;101294.00;;;;5051014;28;20516;-75
2021/09/28 10:38:54;;;;;;;6.17;2.23;;;18.50;1.00;19.50;101294.00;;;;5031770;28;20476;-76
2021/09/28 10:41:46;;;;;;;7.17;2.57;;;18.50;1.00;19.10;101278.00;;;;5032293;28;20430;-75
2021/09/28 10:44:50;;;;;;;8.77;2.77;;;18.30;1.00;19.20;101301.00;;;;5020006;28;20525;-75
2021/09/28 10:47:46;;;;;;;7.87;2.20;;;18.30;1.00;19.40;101302.00;;;;5020775;28;20472;-76
2021/09/28 10:50:22;;;;;;;9.67;4.23;;;18.40;1.00;19.40;101294.00;;;;4981855;28;20458;-76
2021/09/28 10:52:51;;;;;;;6.70;2.90;;;18.50;1.00;19.60;101291.00;;;;5036410;28;20460;-76
2021/09/28 10:55:26;;;;;;;6.00;2.13;;;18.60;1.00;19.70;101293.00;;;;5049565;28;20459;-75
2021/09/28 10:58:09;;;;;;;10.30;2.50;;;18.70;1.00;19.80;101288.00;;;;5048594;28;20468;-76
2021/09/28 11:01:09;;;;;;;7.57;2.30;;;18.60;1.00;19.80;101270.00;;;;5047943;28;20455;-76
2021/09/28 11:04:03;;;;;;;6.73;2.20;;;18.60;1.00;19.90;101286.00;;;;5051318;28;20433;-75
2021/09/28 11:07:09;;;;;;;6.17;2.13;;;18.70;1.00;20.10;101275.00;;;;5053357;28;20488;-77
2021/09/28 11:09:51;;;;;;;5.10;2.10;;;18.90;1.00;20.30;101280.00;;;;5052648;28;20469;-76
2021/09/28 11:12:26;;;;;;;9.23;2.13;;;19.00;1.00;20.60;101278.00;;;;5047691;28;20468;-75